createdAt,value
2018-07-01T00:02:03.354Z,40.11
2018-07-01T00:04:32.982Z,40.11
2018-07-01T00:07:02.661Z,38.81
2018-07-01T00:09:32.299Z,39.53
2018-07-01T00:12:01.950Z,41.13
2018-07-01T00:14:47.874Z,40.16
2018-07-01T00:17:17.565Z,40.85
2018-07-01T00:19:47.162Z,41.00
2018-07-01T00:22:16.846Z,40.67
2018-07-01T00:24:46.429Z,40.29
2018-07-01T00:27:16.031Z,40.96
2018-07-01T00:29:45.915Z,41.39
2018-07-01T00:32:15.618Z,40.80
2018-07-01T00:34:45.266Z,40.34
2018-07-01T00:37:14.898Z,40.40
2018-07-01T00:39:44.571Z,40.70
2018-07-01T00:42:14.199Z,40.75
2018-07-01T00:44:43.820Z,40.89
2018-07-01T00:47:13.462Z,39.82
2018-07-01T00:49:43.082Z,39.98
2018-07-01T00:52:12.681Z,40.96
2018-07-01T00:54:42.322Z,41.00
2018-07-01T00:57:11.982Z,40.68
2018-07-01T00:59:41.586Z,42.14
2018-07-01T01:02:11.222Z,40.51
2018-07-01T01:04:40.874Z,40.94
2018-07-01T01:07:10.478Z,41.53
2018-07-01T01:09:40.105Z,41.01
2018-07-01T01:12:09.706Z,41.96
2018-07-01T01:14:39.374Z,41.55
2018-07-01T01:17:09.011Z,42.44
2018-07-01T01:19:38.609Z,42.24
2018-07-01T01:22:08.314Z,41.88
2018-07-01T01:24:37.942Z,42.03
2018-07-01T01:27:07.595Z,42.29
2018-07-01T01:29:37.225Z,42.90
2018-07-01T01:32:06.929Z,42.50
2018-07-01T01:34:36.597Z,43.04
2018-07-01T01:37:06.295Z,41.85
2018-07-01T01:39:38.685Z,42.82
2018-07-01T01:42:12.490Z,42.71
2018-07-01T01:44:46.572Z,42.64
2018-07-01T01:47:23.284Z,43.43
2018-07-01T01:49:59.310Z,42.73
2018-07-01T01:52:41.634Z,42.74
2018-07-01T01:55:16.055Z,43.29
2018-07-01T01:58:06.978Z,42.77
2018-07-01T02:00:48.597Z,42.59
2018-07-01T02:03:23.440Z,42.57
2018-07-01T02:05:57.617Z,43.48
2018-07-01T02:08:32.141Z,44.62
2018-07-01T02:11:01.875Z,43.22
2018-07-01T02:13:32.609Z,42.66
2018-07-01T02:16:05.742Z,44.16
2018-07-01T02:18:35.375Z,44.12
2018-07-01T02:21:05.166Z,43.83
2018-07-01T02:23:38.286Z,44.34
2018-07-01T02:26:08.023Z,44.39
2018-07-01T02:28:37.799Z,44.71
2018-07-01T02:31:07.694Z,44.83
2018-07-01T02:33:37.399Z,44.84
2018-07-01T02:36:07.067Z,45.18
2018-07-01T02:38:36.641Z,43.98
2018-07-01T02:41:06.292Z,44.78
2018-07-01T02:43:35.912Z,44.96
2018-07-01T02:46:05.595Z,45.47
2018-07-01T02:48:35.210Z,45.97
2018-07-01T02:51:04.837Z,45.68
2018-07-01T02:53:34.513Z,45.51
2018-07-01T02:56:04.406Z,45.05
2018-07-01T02:58:34.174Z,45.67
2018-07-01T03:01:03.789Z,46.09
2018-07-01T03:03:33.396Z,46.39
2018-07-01T03:06:02.963Z,46.16
2018-07-01T03:08:32.594Z,46.37
2018-07-01T03:11:02.258Z,45.68
2018-07-01T03:13:31.890Z,45.11
2018-07-01T03:16:01.518Z,45.43
2018-07-01T03:18:31.269Z,45.17
2018-07-01T03:21:00.845Z,45.34
2018-07-01T03:23:30.434Z,46.25
2018-07-01T03:26:00.034Z,46.69
2018-07-01T03:28:29.650Z,46.11
2018-07-01T03:30:59.325Z,47.02
2018-07-01T03:33:28.952Z,45.22
2018-07-01T03:35:58.590Z,46.26
2018-07-01T03:38:28.242Z,46.50
2018-07-01T03:40:57.874Z,46.46
2018-07-01T03:43:27.497Z,46.46
2018-07-01T03:45:57.114Z,47.09
2018-07-01T03:48:26.749Z,46.79
2018-07-01T03:50:56.365Z,48.00
2018-07-01T03:53:26.042Z,48.14
2018-07-01T03:55:55.637Z,48.60
2018-07-01T03:58:25.286Z,48.80
2018-07-01T04:00:54.899Z,49.42
2018-07-01T04:03:24.523Z,50.37
2018-07-01T04:05:54.165Z,50.88
2018-07-01T04:08:23.810Z,51.09
2018-07-01T04:10:53.416Z,51.37
2018-07-01T04:13:23.067Z,51.66
2018-07-01T04:15:52.722Z,51.60
2018-07-01T04:18:22.314Z,51.32
2018-07-01T04:20:51.941Z,50.40
2018-07-01T04:23:21.553Z,50.97
2018-07-01T04:25:51.212Z,50.50
2018-07-01T04:28:20.797Z,51.07
2018-07-01T04:30:50.456Z,50.04
2018-07-01T04:33:20.090Z,50.49
2018-07-01T04:35:49.732Z,50.19
2018-07-01T04:38:19.360Z,50.10
2018-07-01T04:40:49.001Z,50.35
2018-07-01T04:43:18.602Z,49.56
2018-07-01T04:45:48.249Z,49.33
2018-07-01T04:48:17.902Z,50.60
2018-07-01T04:50:47.518Z,49.97
2018-07-01T04:53:17.160Z,49.77
2018-07-01T04:55:46.769Z,50.31
2018-07-01T04:58:16.405Z,50.46
2018-07-01T05:00:46.054Z,49.82
2018-07-01T05:03:15.677Z,50.47
2018-07-01T05:05:45.354Z,49.08
2018-07-01T05:08:14.995Z,49.29
2018-07-01T05:10:44.709Z,49.04
2018-07-01T05:13:14.351Z,48.92
2018-07-01T05:15:44.145Z,48.73
2018-07-01T05:18:13.786Z,49.01
2018-07-01T05:20:43.401Z,49.01
2018-07-01T05:23:13.002Z,48.73
2018-07-01T05:25:42.607Z,49.23
2018-07-01T05:28:12.273Z,48.81
2018-07-01T05:30:41.892Z,49.03
2018-07-01T05:33:11.482Z,48.86
2018-07-01T05:35:41.101Z,48.62
2018-07-01T05:38:10.674Z,48.28
2018-07-01T05:40:40.306Z,48.13
2018-07-01T05:43:10.044Z,48.12
2018-07-01T05:45:39.682Z,47.59
2018-07-01T05:48:09.298Z,47.55
2018-07-01T05:50:38.938Z,48.14
2018-07-01T05:53:08.578Z,47.35
2018-07-01T05:55:38.221Z,47.78
2018-07-01T05:58:07.833Z,47.77
2018-07-01T06:00:37.575Z,47.55
2018-07-01T06:03:07.250Z,47.07
2018-07-01T06:05:36.906Z,46.87
2018-07-01T06:08:06.678Z,47.53
2018-07-01T06:10:36.333Z,46.74
2018-07-01T06:13:06.018Z,47.17
2018-07-01T06:15:35.714Z,46.51
2018-07-01T06:18:05.429Z,46.84
2018-07-01T06:20:35.046Z,46.51
2018-07-01T06:23:04.687Z,46.22
2018-07-01T06:25:34.358Z,45.51
2018-07-01T06:28:03.986Z,44.95
2018-07-01T06:30:33.639Z,45.64
2018-07-01T06:33:03.255Z,45.52
2018-07-01T06:35:32.569Z,44.67
2018-07-01T06:38:02.202Z,45.39
2018-07-01T06:40:31.834Z,45.09
2018-07-01T06:43:01.504Z,45.22
2018-07-01T06:45:31.223Z,44.70
2018-07-01T06:48:00.890Z,44.18
2018-07-01T06:50:30.481Z,44.14
2018-07-01T06:53:00.126Z,44.23
2018-07-01T06:55:29.761Z,42.92
2018-07-01T06:57:59.389Z,43.55
2018-07-01T07:00:29.012Z,42.32
2018-07-01T07:02:58.756Z,42.81
2018-07-01T07:05:28.377Z,43.48
2018-07-01T07:07:58.033Z,43.12
2018-07-01T07:10:27.681Z,42.39
2018-07-01T07:12:57.333Z,41.83
2018-07-01T07:15:26.998Z,41.65
2018-07-01T07:17:56.686Z,40.93
2018-07-01T07:20:26.413Z,39.18
2018-07-01T07:22:56.395Z,40.56
2018-07-01T07:25:26.023Z,39.02
2018-07-01T07:27:55.597Z,39.50
2018-07-01T07:30:25.241Z,39.09
2018-07-01T07:32:54.860Z,39.73
2018-07-01T07:35:24.509Z,38.15
2018-07-01T07:37:54.458Z,37.50
2018-07-01T07:40:24.134Z,36.92
2018-07-01T07:42:53.798Z,36.80
2018-07-01T07:45:42.955Z,35.15
2018-07-01T07:57:43.890Z,36.03
2018-07-01T08:00:15.558Z,35.32
2018-07-01T08:02:45.563Z,35.99
2018-07-01T08:05:15.332Z,35.72
2018-07-01T08:07:45.107Z,35.41
2018-07-01T08:10:15.046Z,35.63
2018-07-01T08:15:45.435Z,36.08
2018-07-01T08:18:15.426Z,35.70
2018-07-01T08:20:45.197Z,35.45
2018-07-01T08:23:15.041Z,36.47
2018-07-01T08:38:04.816Z,33.10
2018-07-01T08:40:41.804Z,33.66
2018-07-01T08:43:15.560Z,33.07
2018-07-01T08:48:45.235Z,33.84
2018-07-01T08:51:40.348Z,32.96
2018-07-01T08:54:11.817Z,32.96
2018-07-01T08:56:42.502Z,30.84
2018-07-01T08:59:14.719Z,32.04
2018-07-01T09:04:45.765Z,31.52
2018-07-01T09:07:36.233Z,31.77
2018-07-01T09:10:12.315Z,31.95
2018-07-01T09:15:36.670Z,30.58
2018-07-01T09:18:12.323Z,31.68
2018-07-01T09:20:47.998Z,29.41
2018-07-01T09:23:28.292Z,31.67
2018-07-01T09:26:05.418Z,30.34
2018-07-01T09:28:42.778Z,30.03
2018-07-01T09:36:40.406Z,29.86
2018-07-01T09:39:28.660Z,29.83
2018-07-01T09:42:16.090Z,30.05
2018-07-01T09:44:48.500Z,30.44
2018-07-01T09:47:18.876Z,30.49
2018-07-01T09:51:08.379Z,31.54
2018-07-01T09:53:49.075Z,30.68
2018-07-01T09:56:33.779Z,28.54
2018-07-01T09:59:03.916Z,29.29
2018-07-01T10:01:34.706Z,29.87
2018-07-01T10:04:04.581Z,27.78
2018-07-01T10:06:34.577Z,28.93
2018-07-01T10:25:32.065Z,27.87
2018-07-01T10:28:06.823Z,28.06
2018-07-01T10:36:24.858Z,28.56
2018-07-01T10:39:03.015Z,28.10
2018-07-01T10:41:53.345Z,28.51
2018-07-01T10:44:30.568Z,28.26
2018-07-01T10:47:32.491Z,28.84
2018-07-01T10:50:04.285Z,27.95
2018-07-01T10:52:34.343Z,27.82
2018-07-01T11:14:02.796Z,28.25
2018-07-01T11:27:03.134Z,29.23
2018-07-01T11:29:34.163Z,25.78
2018-07-01T11:32:06.052Z,25.52
2018-07-01T11:34:36.819Z,26.96
2018-07-01T11:37:06.903Z,27.21
2018-07-01T11:39:37.658Z,25.05
2018-07-01T11:42:07.755Z,25.96
2018-07-01T11:54:55.846Z,27.02
2018-07-01T12:00:41.587Z,28.24
2018-07-01T12:03:11.435Z,27.74
2018-07-01T12:05:41.511Z,27.02
2018-07-01T12:11:28.084Z,27.26
2018-07-01T12:14:04.095Z,28.39
2018-07-01T12:16:39.251Z,27.92
2018-07-01T12:19:37.297Z,27.28
2018-07-01T12:25:17.865Z,27.05
2018-07-01T12:32:38.123Z,27.23
2018-07-01T12:38:30.829Z,27.67
2018-07-01T12:44:19.804Z,26.49
2018-07-01T13:02:57.072Z,26.90
2018-07-01T13:21:28.820Z,25.78
2018-07-01T13:24:26.401Z,26.07
2018-07-01T13:27:04.535Z,26.43
2018-07-01T13:30:26.169Z,26.12
2018-07-01T13:33:16.345Z,25.13
2018-07-01T13:39:25.065Z,25.74
2018-07-01T13:50:28.622Z,25.20
2018-07-01T14:20:40.926Z,25.78
2018-07-01T14:23:24.624Z,24.85
2018-07-01T14:25:54.447Z,25.45
2018-07-01T14:33:21.584Z,25.47
2018-07-01T14:35:54.647Z,25.70
2018-07-01T14:38:25.121Z,25.50
2018-07-01T14:46:16.113Z,25.56
2018-07-01T14:49:17.605Z,24.39
2018-07-01T15:00:16.284Z,25.19
2018-07-01T15:03:15.411Z,24.44
2018-07-01T15:29:46.028Z,24.94
2018-07-01T15:32:18.361Z,24.14
2018-07-01T15:37:29.567Z,24.16
2018-07-01T15:40:20.155Z,24.16
2018-07-01T15:44:05.022Z,23.23
2018-07-01T15:47:12.528Z,24.58
2018-07-01T15:49:44.009Z,24.06
2018-07-01T15:52:14.275Z,23.78
2018-07-01T15:54:48.200Z,23.80
2018-07-01T16:00:14.040Z,23.34
2018-07-01T16:02:44.133Z,23.30
2018-07-01T16:05:16.171Z,23.07
2018-07-01T16:07:46.898Z,23.09
2018-07-01T16:10:43.339Z,22.65
2018-07-01T16:13:14.971Z,23.04
2018-07-01T16:16:07.567Z,23.36
2018-07-01T16:18:43.951Z,23.38
2018-07-01T16:21:17.511Z,23.94
2018-07-01T16:23:48.576Z,23.45
2018-07-01T16:29:02.408Z,22.82
2018-07-01T16:31:33.310Z,23.10
2018-07-01T16:34:05.142Z,22.62
2018-07-01T16:36:57.624Z,22.74
2018-07-01T16:39:30.712Z,22.96
2018-07-01T16:42:02.671Z,21.91
2018-07-01T16:44:44.579Z,23.30
2018-07-01T16:47:17.807Z,22.70
2018-07-01T16:49:48.005Z,22.77
2018-07-01T16:52:18.289Z,22.84
2018-07-01T16:54:48.452Z,21.54
2018-07-01T16:57:18.500Z,21.48
2018-07-01T16:59:51.047Z,21.83
2018-07-01T17:02:32.187Z,22.25
2018-07-01T17:05:02.647Z,21.81
2018-07-01T17:07:32.836Z,22.45
2018-07-01T17:10:15.025Z,21.62
2018-07-01T17:12:45.886Z,22.27
2018-07-01T17:15:33.648Z,22.55
2018-07-01T17:18:18.035Z,21.81
2018-07-01T17:21:14.371Z,22.32
2018-07-01T17:23:52.284Z,23.14
2018-07-01T17:26:22.672Z,23.90
2018-07-01T17:28:53.244Z,23.80
2018-07-01T17:31:29.946Z,23.88
2018-07-01T17:34:00.473Z,24.25
2018-07-01T17:36:30.693Z,24.77
2018-07-01T17:39:02.415Z,25.64
2018-07-01T17:41:44.786Z,24.20
2018-07-01T17:44:15.653Z,24.49
2018-07-01T17:46:49.469Z,24.56
2018-07-01T17:49:21.164Z,24.72
2018-07-01T17:51:51.500Z,26.13
2018-07-01T17:54:23.074Z,25.59
2018-07-01T17:56:53.167Z,25.74
2018-07-01T17:59:23.102Z,25.10
2018-07-01T18:01:52.976Z,26.52
2018-07-01T18:04:24.136Z,23.70
2018-07-01T18:06:54.361Z,23.80
2018-07-01T18:09:24.340Z,24.02
2018-07-01T18:12:00.072Z,23.83
2018-07-01T18:14:30.772Z,23.62
2018-07-01T18:17:00.698Z,24.63
2018-07-01T18:19:34.684Z,24.87
2018-07-01T18:22:21.724Z,24.61
2018-07-01T18:24:53.940Z,25.18
2018-07-01T18:27:14.615Z,25.90
2018-07-01T18:29:54.796Z,25.85
2018-07-01T18:32:29.665Z,25.54
2018-07-01T18:34:59.714Z,26.20
2018-07-01T18:37:29.659Z,26.74
2018-07-01T18:39:59.849Z,26.88
2018-07-01T18:42:32.541Z,26.11
2018-07-01T18:45:02.343Z,27.17
2018-07-01T18:47:32.300Z,26.55
2018-07-01T18:50:04.366Z,27.41
2018-07-01T18:52:35.688Z,27.12
2018-07-01T18:55:05.704Z,27.65
2018-07-01T18:57:36.253Z,27.91
2018-07-01T19:00:12.492Z,27.19
2018-07-01T19:02:43.971Z,27.60
2018-07-01T19:05:14.145Z,27.34
2018-07-01T19:07:44.702Z,26.97
2018-07-01T19:10:14.865Z,27.52
2018-07-01T19:12:45.678Z,26.74
2018-07-01T19:15:16.825Z,27.91
2018-07-01T19:17:47.100Z,27.30
2018-07-01T19:20:17.107Z,28.31
2018-07-01T19:22:47.368Z,27.08
2018-07-01T19:25:25.091Z,28.12
2018-07-01T19:27:58.339Z,27.69
2018-07-01T19:34:59.799Z,27.50
2018-07-01T19:37:29.793Z,28.44
2018-07-01T19:40:00.278Z,28.43
2018-07-01T19:42:42.299Z,28.80
2018-07-01T19:48:40.202Z,29.05
2018-07-01T19:51:12.756Z,28.04
2018-07-01T19:59:57.682Z,28.99
2018-07-01T20:05:37.000Z,30.74
2018-07-01T20:08:08.294Z,29.10
2018-07-01T20:10:39.591Z,30.11
2018-07-01T20:13:13.066Z,29.91
2018-07-01T20:18:47.723Z,32.07
2018-07-01T20:21:17.903Z,33.21
2018-07-01T20:26:43.727Z,31.99
2018-07-01T20:29:18.807Z,33.34
2018-07-01T20:31:49.057Z,32.51
2018-07-01T20:34:32.807Z,35.05
2018-07-01T20:37:03.250Z,30.93
2018-07-01T20:39:33.391Z,31.85
2018-07-01T20:42:14.509Z,32.08
2018-07-01T20:44:52.314Z,36.34
2018-07-01T20:47:34.428Z,35.68
2018-07-01T20:50:52.057Z,35.29
2018-07-01T20:53:26.181Z,37.03
2018-07-01T20:55:57.646Z,35.53
2018-07-01T20:58:36.909Z,37.07
2018-07-01T21:01:08.760Z,35.66
2018-07-01T21:03:38.678Z,38.07
2018-07-01T21:06:08.796Z,37.68
2018-07-01T21:08:41.033Z,38.36
2018-07-01T21:11:14.713Z,36.70
2018-07-01T21:13:45.995Z,38.81
2018-07-01T21:16:15.931Z,37.74
2018-07-01T21:18:46.112Z,37.49
2018-07-01T21:21:16.067Z,38.58
2018-07-01T21:23:46.010Z,37.87
2018-07-01T21:26:16.013Z,37.43
2018-07-01T21:28:46.029Z,39.14
2018-07-01T21:31:16.535Z,36.31
2018-07-01T21:33:49.917Z,37.15
2018-07-01T21:36:25.210Z,38.33
2018-07-01T21:38:59.231Z,37.95
2018-07-01T21:41:29.738Z,37.52
2018-07-01T21:44:14.480Z,37.87
2018-07-01T21:46:44.350Z,37.69
2018-07-01T21:49:14.254Z,38.07
2018-07-01T21:51:47.841Z,37.90
2018-07-01T22:09:19.186Z,36.85
2018-07-01T22:15:15.669Z,37.91
2018-07-01T22:47:43.713Z,39.17
2018-07-01T22:50:37.181Z,38.97
2018-07-01T22:53:28.233Z,39.04
2018-07-01T22:55:59.634Z,39.18
2018-07-01T22:58:31.055Z,38.83
2018-07-01T23:01:13.401Z,38.67
2018-07-01T23:03:56.607Z,39.34
2018-07-01T23:17:40.258Z,39.59
2018-07-01T23:20:23.631Z,39.39
2018-07-01T23:23:09.650Z,39.03
2018-07-01T23:25:40.447Z,39.54
2018-07-01T23:28:10.643Z,39.39
2018-07-01T23:30:40.805Z,40.16
2018-07-01T23:33:10.880Z,40.21
2018-07-01T23:35:42.100Z,41.99
2018-07-01T23:43:09.495Z,41.15
2018-07-01T23:45:40.312Z,42.02
2018-07-01T23:48:12.242Z,42.37
2018-07-01T23:50:52.932Z,42.31
2018-07-01T23:53:33.381Z,42.14
2018-07-01T23:56:06.652Z,42.42
2018-07-01T23:58:39.497Z,43.20
